sensor_id;sensor_type;location;lat;lon;timestamp;pressure;altitude;pressure_sealevel;temperature;humidity
9439;BME280;5176;42.622;25.386;2023-12-29T00:00:26;97819.38;;;3.96;79.07
9439;BME280;5176;42.622;25.386;2023-12-29T00:02:53;97819.31;;;3.98;80.12
9439;BME280;5176;42.622;25.386;2023-12-29T00:05:20;97817.69;;;3.94;80.37
9439;BME280;5176;42.622;25.386;2023-12-29T00:07:48;97816.34;;;3.80;82.16
9439;BME280;5176;42.622;25.386;2023-12-29T00:10:15;97815.25;;;3.88;82.73
9439;BME280;5176;42.622;25.386;2023-12-29T00:12:42;97822.03;;;3.93;81.97
9439;BME280;5176;42.622;25.386;2023-12-29T00:15:10;97822.00;;;3.95;81.06
9439;BME280;5176;42.622;25.386;2023-12-29T00:17:39;97819.41;;;3.95;81.85
9439;BME280;5176;42.622;25.386;2023-12-29T00:20:07;97816.78;;;3.96;81.06
9439;BME280;5176;42.622;25.386;2023-12-29T00:22:35;97815.25;;;3.88;80.08
9439;BME280;5176;42.622;25.386;2023-12-29T00:25:02;97807.41;;;3.91;79.86
9439;BME280;5176;42.622;25.386;2023-12-29T00:27:31;97805.78;;;3.88;79.07
9439;BME280;5176;42.622;25.386;2023-12-29T00:29:58;97807.47;;;3.88;79.50
9439;BME280;5176;42.622;25.386;2023-12-29T00:32:26;97814.34;;;3.90;79.21
9439;BME280;5176;42.622;25.386;2023-12-29T00:34:55;97815.09;;;3.94;78.94
9439;BME280;5176;42.622;25.386;2023-12-29T00:37:22;97810.81;;;3.93;78.15
9439;BME280;5176;42.622;25.386;2023-12-29T00:39:50;97810.13;;;3.86;78.22
9439;BME280;5176;42.622;25.386;2023-12-29T00:42:17;97805.16;;;3.78;77.96
9439;BME280;5176;42.622;25.386;2023-12-29T00:44:45;97800.81;;;3.79;78.89
9439;BME280;5176;42.622;25.386;2023-12-29T00:47:12;97801.72;;;3.78;79.65
9439;BME280;5176;42.622;25.386;2023-12-29T00:49:39;97799.28;;;3.72;80.04
9439;BME280;5176;42.622;25.386;2023-12-29T00:52:08;97798.28;;;3.77;80.17
9439;BME280;5176;42.622;25.386;2023-12-29T00:54:36;97804.44;;;3.73;79.76
9439;BME280;5176;42.622;25.386;2023-12-29T00:57:03;97801.13;;;3.68;80.39
9439;BME280;5176;42.622;25.386;2023-12-29T00:59:31;97801.16;;;3.67;80.00
9439;BME280;5176;42.622;25.386;2023-12-29T01:01:58;97797.72;;;3.66;80.97
9439;BME280;5176;42.622;25.386;2023-12-29T01:04:25;97797.72;;;3.66;81.27
9439;BME280;5176;42.622;25.386;2023-12-29T01:06:53;97791.56;;;3.70;81.30
9439;BME280;5176;42.622;25.386;2023-12-29T01:09:22;97793.25;;;3.71;80.27
9439;BME280;5176;42.622;25.386;2023-12-29T01:11:49;97787.28;;;3.69;79.59
9439;BME280;5176;42.622;25.386;2023-12-29T01:14:16;97794.31;;;3.64;79.53
9439;BME280;5176;42.622;25.386;2023-12-29T01:16:44;97786.06;;;3.50;80.63
9439;BME280;5176;42.622;25.386;2023-12-29T01:19:11;97786.97;;;3.47;83.10
9439;BME280;5176;42.622;25.386;2023-12-29T01:21:38;97762.94;;;3.42;86.07
9439;BME280;5176;42.622;25.386;2023-12-29T01:24:06;97777.19;;;3.26;85.02
9439;BME280;5176;42.622;25.386;2023-12-29T01:26:38;97770.41;;;3.22;85.12
9439;BME280;5176;42.622;25.386;2023-12-29T01:29:05;97776.34;;;3.25;85.64
9439;BME280;5176;42.622;25.386;2023-12-29T01:31:33;97779.91;;;3.21;85.72
9439;BME280;5176;42.622;25.386;2023-12-29T01:34:00;97775.59;;;3.20;86.74
9439;BME280;5176;42.622;25.386;2023-12-29T01:36:27;97770.50;;;3.17;88.45
9439;BME280;5176;42.622;25.386;2023-12-29T01:38:55;97767.97;;;3.16;90.38
9439;BME280;5176;42.622;25.386;2023-12-29T01:41:22;97769.72;;;3.15;90.67
9439;BME280;5176;42.622;25.386;2023-12-29T01:44:17;97768.66;;;3.22;91.50
9439;BME280;5176;42.622;25.386;2023-12-29T01:46:46;97754.03;;;3.20;90.50
9439;BME280;5176;42.622;25.386;2023-12-29T01:49:15;97752.28;;;3.22;89.77
9439;BME280;5176;42.622;25.386;2023-12-29T01:51:44;97749.53;;;3.28;90.06
9439;BME280;5176;42.622;25.386;2023-12-29T01:54:12;97750.22;;;3.35;90.28
9439;BME280;5176;42.622;25.386;2023-12-29T01:56:40;97745.03;;;3.33;90.16
9439;BME280;5176;42.622;25.386;2023-12-29T01:59:10;97742.38;;;3.36;90.22
9439;BME280;5176;42.622;25.386;2023-12-29T02:01:38;97747.25;;;3.48;90.40
9439;BME280;5176;42.622;25.386;2023-12-29T02:04:06;97734.97;;;3.55;89.72
9439;BME280;5176;42.622;25.386;2023-12-29T02:06:34;97734.13;;;3.53;88.41
9439;BME280;5176;42.622;25.386;2023-12-29T02:09:02;97729.88;;;3.50;86.21
9439;BME280;5176;42.622;25.386;2023-12-29T02:11:30;97726.34;;;3.54;85.73
9439;BME280;5176;42.622;25.386;2023-12-29T02:13:58;97722.22;;;3.46;84.97
9439;BME280;5176;42.622;25.386;2023-12-29T02:16:34;97731.69;;;3.48;85.24
9439;BME280;5176;42.622;25.386;2023-12-29T02:19:11;97723.75;;;3.53;84.61
9439;BME280;5176;42.622;25.386;2023-12-29T02:21:41;97724.75;;;3.49;83.80
9439;BME280;5176;42.622;25.386;2023-12-29T02:24:08;97722.41;;;3.40;83.47
9439;BME280;5176;42.622;25.386;2023-12-29T02:26:37;97721.81;;;3.30;83.80
9439;BME280;5176;42.622;25.386;2023-12-29T02:29:07;97712.34;;;3.29;83.29
9439;BME280;5176;42.622;25.386;2023-12-29T02:31:39;97721.97;;;3.24;84.06
9439;BME280;5176;42.622;25.386;2023-12-29T02:34:12;97709.97;;;3.20;84.31
9439;BME280;5176;42.622;25.386;2023-12-29T02:36:41;97721.03;;;3.26;84.03
9439;BME280;5176;42.622;25.386;2023-12-29T02:39:10;97715.06;;;3.24;83.81
9439;BME280;5176;42.622;25.386;2023-12-29T02:41:39;97708.44;;;3.13;84.35
9439;BME280;5176;42.622;25.386;2023-12-29T02:44:06;97711.88;;;3.15;84.19
9439;BME280;5176;42.622;25.386;2023-12-29T02:46:33;97705.81;;;3.14;83.87
9439;BME280;5176;42.622;25.386;2023-12-29T02:49:00;97712.66;;;3.17;83.27
9439;BME280;5176;42.622;25.386;2023-12-29T02:51:28;97699.03;;;3.10;82.65
9439;BME280;5176;42.622;25.386;2023-12-29T02:53:55;97709.66;;;2.99;82.45
9439;BME280;5176;42.622;25.386;2023-12-29T02:56:22;97704.63;;;2.95;83.22
9439;BME280;5176;42.622;25.386;2023-12-29T02:58:51;97697.81;;;2.91;83.92
9439;BME280;5176;42.622;25.386;2023-12-29T03:01:18;97704.59;;;2.96;85.07
9439;BME280;5176;42.622;25.386;2023-12-29T03:03:45;97697.72;;;2.94;86.29
9439;BME280;5176;42.622;25.386;2023-12-29T03:06:12;97695.28;;;2.89;87.42
9439;BME280;5176;42.622;25.386;2023-12-29T03:08:40;97684.91;;;2.89;90.06
9439;BME280;5176;42.622;25.386;2023-12-29T03:11:07;97681.31;;;2.95;91.89
9439;BME280;5176;42.622;25.386;2023-12-29T03:13:34;97676.94;;;2.97;91.47
9439;BME280;5176;42.622;25.386;2023-12-29T03:16:04;97682.22;;;2.92;91.89
9439;BME280;5176;42.622;25.386;2023-12-29T03:18:31;97682.78;;;2.71;92.58
9439;BME280;5176;42.622;25.386;2023-12-29T03:20:58;97687.72;;;2.80;92.60
9439;BME280;5176;42.622;25.386;2023-12-29T03:23:25;97688.31;;;2.91;92.09
9439;BME280;5176;42.622;25.386;2023-12-29T03:25:53;97654.97;;;2.79;90.43
9439;BME280;5176;42.622;25.386;2023-12-29T03:28:20;97679.53;;;2.97;89.81
9439;BME280;5176;42.622;25.386;2023-12-29T03:30:47;97684.59;;;3.02;89.31
9439;BME280;5176;42.622;25.386;2023-12-29T03:33:16;97675.09;;;3.02;89.56
9439;BME280;5176;42.622;25.386;2023-12-29T03:35:43;97674.97;;;3.05;89.33
9439;BME280;5176;42.622;25.386;2023-12-29T03:38:10;97680.06;;;3.10;88.33
9439;BME280;5176;42.622;25.386;2023-12-29T03:40:38;97676.72;;;3.05;87.93
9439;BME280;5176;42.622;25.386;2023-12-29T03:43:05;97680.97;;;3.07;88.51
9439;BME280;5176;42.622;25.386;2023-12-29T03:45:33;97676.78;;;3.03;89.72
9439;BME280;5176;42.622;25.386;2023-12-29T03:48:00;97683.69;;;3.03;90.30
9439;BME280;5176;42.622;25.386;2023-12-29T03:50:29;97677.56;;;3.05;89.97
9439;BME280;5176;42.622;25.386;2023-12-29T03:52:56;97671.50;;;3.06;89.58
9439;BME280;5176;42.622;25.386;2023-12-29T03:55:23;97667.22;;;3.05;89.69
9439;BME280;5176;42.622;25.386;2023-12-29T03:57:50;97676.81;;;3.02;88.47
9439;BME280;5176;42.622;25.386;2023-12-29T04:00:18;97669.28;;;2.92;88.48
9439;BME280;5176;42.622;25.386;2023-12-29T04:02:45;97663.41;;;2.86;89.34
9439;BME280;5176;42.622;25.386;2023-12-29T04:05:13;97673.56;;;2.93;88.90
9439;BME280;5176;42.622;25.386;2023-12-29T04:07:41;97676.09;;;2.96;88.52
9439;BME280;5176;42.622;25.386;2023-12-29T04:10:09;97678.69;;;2.96;88.10
9439;BME280;5176;42.622;25.386;2023-12-29T04:12:36;97664.84;;;2.97;88.23
9439;BME280;5176;42.622;25.386;2023-12-29T04:15:04;97651.41;;;2.83;86.09
9439;BME280;5176;42.622;25.386;2023-12-29T04:17:32;97669.44;;;2.86;87.41
9439;BME280;5176;42.622;25.386;2023-12-29T04:19:59;97668.78;;;2.78;86.07
9439;BME280;5176;42.622;25.386;2023-12-29T04:22:26;97664.41;;;2.82;87.08
9439;BME280;5176;42.622;25.386;2023-12-29T04:24:55;97659.22;;;2.82;87.55
9439;BME280;5176;42.622;25.386;2023-12-29T04:27:23;97668.69;;;2.83;88.38
9439;BME280;5176;42.622;25.386;2023-12-29T04:29:50;97666.16;;;2.81;89.14
9439;BME280;5176;42.622;25.386;2023-12-29T04:32:17;97670.53;;;2.78;89.22
9439;BME280;5176;42.622;25.386;2023-12-29T04:34:45;97657.69;;;2.73;89.53
9439;BME280;5176;42.622;25.386;2023-12-29T04:37:12;97656.75;;;2.43;89.64
9439;BME280;5176;42.622;25.386;2023-12-29T04:39:39;97656.09;;;2.35;90.13
9439;BME280;5176;42.622;25.386;2023-12-29T04:42:08;97661.47;;;2.26;90.01
9439;BME280;5176;42.622;25.386;2023-12-29T04:44:35;97651.13;;;2.26;90.18
9439;BME280;5176;42.622;25.386;2023-12-29T04:47:03;97652.78;;;2.30;90.00
9439;BME280;5176;42.622;25.386;2023-12-29T04:49:30;97651.72;;;2.37;89.44
9439;BME280;5176;42.622;25.386;2023-12-29T04:51:58;97655.88;;;2.44;88.79
9439;BME280;5176;42.622;25.386;2023-12-29T04:54:25;97650.69;;;2.44;88.20
9439;BME280;5176;42.622;25.386;2023-12-29T04:56:52;97653.28;;;2.44;87.99
9439;BME280;5176;42.622;25.386;2023-12-29T04:59:21;97648.19;;;2.41;87.54
9439;BME280;5176;42.622;25.386;2023-12-29T05:01:49;97662.69;;;2.48;87.19
9439;BME280;5176;42.622;25.386;2023-12-29T05:04:16;97652.34;;;2.46;87.11
9439;BME280;5176;42.622;25.386;2023-12-29T05:06:43;97666.97;;;2.49;86.66
9439;BME280;5176;42.622;25.386;2023-12-29T05:09:11;97663.63;;;2.44;87.50
9439;BME280;5176;42.622;25.386;2023-12-29T05:11:38;97669.53;;;2.49;86.58
9439;BME280;5176;42.622;25.386;2023-12-29T05:14:06;97667.91;;;2.45;86.02
9439;BME280;5176;42.622;25.386;2023-12-29T05:16:35;97666.13;;;2.47;85.85
9439;BME280;5176;42.622;25.386;2023-12-29T05:19:02;97663.59;;;2.45;85.60
9439;BME280;5176;42.622;25.386;2023-12-29T05:21:29;97656.81;;;2.40;86.16
9439;BME280;5176;42.622;25.386;2023-12-29T05:23:57;97664.63;;;2.38;87.43
9439;BME280;5176;42.622;25.386;2023-12-29T05:26:25;97650.19;;;2.30;87.90
9439;BME280;5176;42.622;25.386;2023-12-29T05:28:52;97656.91;;;2.37;89.47
9439;BME280;5176;42.622;25.386;2023-12-29T05:31:19;97657.75;;;2.37;91.07
9439;BME280;5176;42.622;25.386;2023-12-29T05:33:48;97665.72;;;2.30;92.31
9439;BME280;5176;42.622;25.386;2023-12-29T05:36:15;97661.34;;;2.32;92.75
9439;BME280;5176;42.622;25.386;2023-12-29T05:38:45;97662.88;;;2.39;92.53
9439;BME280;5176;42.622;25.386;2023-12-29T05:41:13;97660.25;;;2.42;91.69
9439;BME280;5176;42.622;25.386;2023-12-29T05:43:41;97670.59;;;2.40;91.81
9439;BME280;5176;42.622;25.386;2023-12-29T05:46:09;97671.47;;;2.41;91.98
9439;BME280;5176;42.622;25.386;2023-12-29T05:48:37;97670.50;;;2.45;91.26
9439;BME280;5176;42.622;25.386;2023-12-29T05:51:10;97669.53;;;2.49;89.81
9439;BME280;5176;42.622;25.386;2023-12-29T05:53:39;97669.53;;;2.49;89.04
9439;BME280;5176;42.622;25.386;2023-12-29T05:56:07;97666.06;;;2.50;88.54
9439;BME280;5176;42.622;25.386;2023-12-29T05:58:34;97672.03;;;2.52;87.47
9439;BME280;5176;42.622;25.386;2023-12-29T06:01:01;97666.97;;;2.49;87.28
9439;BME280;5176;42.622;25.386;2023-12-29T06:03:29;97670.44;;;2.46;86.44
9439;BME280;5176;42.622;25.386;2023-12-29T06:05:56;97674.78;;;2.46;86.32
9439;BME280;5176;42.622;25.386;2023-12-29T06:08:25;97676.41;;;2.50;86.47
9439;BME280;5176;42.622;25.386;2023-12-29T06:10:52;97673.75;;;2.53;86.01
9439;BME280;5176;42.622;25.386;2023-12-29T06:13:19;97672.09;;;2.51;84.86
9439;BME280;5176;42.622;25.386;2023-12-29T06:15:47;97674.59;;;2.54;84.84
9439;BME280;5176;42.622;25.386;2023-12-29T06:18:14;97672.00;;;2.55;83.81
9439;BME280;5176;42.622;25.386;2023-12-29T06:20:42;97677.13;;;2.57;84.23
9439;BME280;5176;42.622;25.386;2023-12-29T06:23:09;97682.09;;;2.64;83.65
9439;BME280;5176;42.622;25.386;2023-12-29T06:25:38;97681.28;;;2.62;83.65
9439;BME280;5176;42.622;25.386;2023-12-29T06:28:07;97676.81;;;2.67;83.52
9439;BME280;5176;42.622;25.386;2023-12-29T06:30:34;97686.13;;;2.76;82.53
9439;BME280;5176;42.622;25.386;2023-12-29T06:33:01;97680.75;;;2.84;81.98
9439;BME280;5176;42.622;25.386;2023-12-29T06:35:29;97681.44;;;2.90;81.29
9439;BME280;5176;42.622;25.386;2023-12-29T06:37:56;97677.16;;;2.89;80.96
9439;BME280;5176;42.622;25.386;2023-12-29T06:40:23;97687.19;;;3.02;81.99
9439;BME280;5176;42.622;25.386;2023-12-29T06:42:52;97691.09;;;3.16;82.33
9439;BME280;5176;42.622;25.386;2023-12-29T06:45:19;97678.66;;;3.29;81.85
9439;BME280;5176;42.622;25.386;2023-12-29T06:47:47;97681.72;;;3.43;81.08
9439;BME280;5176;42.622;25.386;2023-12-29T06:50:14;97679.78;;;3.50;80.29
9439;BME280;5176;42.622;25.386;2023-12-29T06:52:41;97691.69;;;3.57;79.39
9439;BME280;5176;42.622;25.386;2023-12-29T06:55:09;97692.25;;;3.68;78.34
9439;BME280;5176;42.622;25.386;2023-12-29T06:57:36;97691.72;;;3.85;79.17
9439;BME280;5176;42.622;25.386;2023-12-29T07:00:06;97689.50;;;4.01;79.59
9439;BME280;5176;42.622;25.386;2023-12-29T07:02:34;97686.94;;;4.29;79.56
9439;BME280;5176;42.622;25.386;2023-12-29T07:05:05;97689.75;;;4.48;79.88
9439;BME280;5176;42.622;25.386;2023-12-29T07:07:32;97690.22;;;4.60;79.54
9439;BME280;5176;42.622;25.386;2023-12-29T07:09:59;97687.50;;;4.90;78.94
9439;BME280;5176;42.622;25.386;2023-12-29T07:12:26;97687.75;;;5.09;78.11
9439;BME280;5176;42.622;25.386;2023-12-29T07:14:54;97688.72;;;5.30;78.00
9439;BME280;5176;42.622;25.386;2023-12-29T07:17:22;97679.53;;;5.44;76.35
9439;BME280;5176;42.622;25.386;2023-12-29T07:19:50;97679.50;;;5.68;75.75
9439;BME280;5176;42.622;25.386;2023-12-29T07:22:17;97676.59;;;5.77;74.55
9439;BME280;5176;42.622;25.386;2023-12-29T07:24:44;97677.88;;;5.89;74.50
9439;BME280;5176;42.622;25.386;2023-12-29T07:27:11;97681.44;;;6.10;74.42
9439;BME280;5176;42.622;25.386;2023-12-29T07:29:38;97674.72;;;6.26;73.30
9439;BME280;5176;42.622;25.386;2023-12-29T07:32:06;97677.63;;;6.40;72.94
9439;BME280;5176;42.622;25.386;2023-12-29T07:34:35;97670.75;;;6.60;73.33
9439;BME280;5176;42.622;25.386;2023-12-29T07:37:02;97672.53;;;6.79;72.82
9439;BME280;5176;42.622;25.386;2023-12-29T07:39:30;97674.19;;;7.02;71.82
9439;BME280;5176;42.622;25.386;2023-12-29T07:41:57;97681.19;;;7.21;71.53
9439;BME280;5176;42.622;25.386;2023-12-29T07:44:24;97680.13;;;7.45;70.11
9439;BME280;5176;42.622;25.386;2023-12-29T07:46:52;97669.81;;;7.62;68.17
9439;BME280;5176;42.622;25.386;2023-12-29T07:49:19;97669.94;;;7.78;67.22
9439;BME280;5176;42.622;25.386;2023-12-29T07:51:48;97670.72;;;7.99;67.40
9439;BME280;5176;42.622;25.386;2023-12-29T07:54:15;97667.94;;;8.21;66.17
9439;BME280;5176;42.622;25.386;2023-12-29T07:56:42;97679.75;;;8.30;65.98
9439;BME280;5176;42.622;25.386;2023-12-29T07:59:10;97675.78;;;8.40;64.79
9439;BME280;5176;42.622;25.386;2023-12-29T08:01:37;97672.38;;;8.57;63.70
9439;BME280;5176;42.622;25.386;2023-12-29T08:04:05;97665.84;;;8.65;63.39
9439;BME280;5176;42.622;25.386;2023-12-29T08:06:32;97666.53;;;8.86;62.76
9439;BME280;5176;42.622;25.386;2023-12-29T08:09:01;97662.91;;;9.06;61.75
9439;BME280;5176;42.622;25.386;2023-12-29T08:11:29;97665.66;;;9.20;60.94
9439;BME280;5176;42.622;25.386;2023-12-29T08:13:56;97671.72;;;9.38;60.66
9439;BME280;5176;42.622;25.386;2023-12-29T08:16:23;97663.44;;;9.63;59.78
9439;BME280;5176;42.622;25.386;2023-12-29T08:18:52;97664.63;;;9.89;59.63
9439;BME280;5176;42.622;25.386;2023-12-29T08:21:20;97674.19;;;10.06;57.96
9439;BME280;5176;42.622;25.386;2023-12-29T08:23:47;97670.47;;;9.94;57.78
9439;BME280;5176;42.622;25.386;2023-12-29T08:26:16;97674.47;;;10.17;57.99
9439;BME280;5176;42.622;25.386;2023-12-29T08:28:44;97660.44;;;10.34;58.48
9439;BME280;5176;42.622;25.386;2023-12-29T08:31:11;97671.19;;;10.45;58.04
9439;BME280;5176;42.622;25.386;2023-12-29T08:33:38;97662.63;;;10.57;58.26
9439;BME280;5176;42.622;25.386;2023-12-29T08:36:06;97668.75;;;10.72;56.69
9439;BME280;5176;42.622;25.386;2023-12-29T08:38:34;97666.56;;;10.95;54.89
9439;BME280;5176;42.622;25.386;2023-12-29T08:41:01;97665.41;;;11.14;53.89
9439;BME280;5176;42.622;25.386;2023-12-29T08:43:30;97663.75;;;11.28;54.30
9439;BME280;5176;42.622;25.386;2023-12-29T08:45:57;97664.78;;;11.39;54.57
9439;BME280;5176;42.622;25.386;2023-12-29T08:48:24;97664.59;;;11.57;54.16
9439;BME280;5176;42.622;25.386;2023-12-29T08:50:52;97656.25;;;11.79;53.18
9439;BME280;5176;42.622;25.386;2023-12-29T08:53:19;97654.19;;;12.12;53.30
9439;BME280;5176;42.622;25.386;2023-12-29T08:55:46;97653.47;;;12.37;51.93
9439;BME280;5176;42.622;25.386;2023-12-29T08:58:14;97648.16;;;12.51;50.91
9439;BME280;5176;42.622;25.386;2023-12-29T09:00:43;97652.06;;;12.59;50.94
9439;BME280;5176;42.622;25.386;2023-12-29T09:03:10;97652.00;;;12.73;50.10
9439;BME280;5176;42.622;25.386;2023-12-29T09:05:37;97645.81;;;12.87;49.94
9439;BME280;5176;42.622;25.386;2023-12-29T09:08:05;97644.69;;;13.16;49.52
9439;BME280;5176;42.622;25.386;2023-12-29T09:10:32;97647.19;;;13.32;48.13
9439;BME280;5176;42.622;25.386;2023-12-29T09:12:59;97642.00;;;13.43;47.35
9439;BME280;5176;42.622;25.386;2023-12-29T09:15:27;97646.25;;;13.46;47.68
9439;BME280;5176;42.622;25.386;2023-12-29T09:17:56;97638.41;;;13.57;47.89
9439;BME280;5176;42.622;25.386;2023-12-29T09:20:23;97638.38;;;13.82;46.33
9439;BME280;5176;42.622;25.386;2023-12-29T09:22:51;97637.53;;;13.95;46.80
9439;BME280;5176;42.622;25.386;2023-12-29T09:25:19;97624.59;;;14.15;46.61
9439;BME280;5176;42.622;25.386;2023-12-29T09:27:46;97620.75;;;14.32;45.68
9439;BME280;5176;42.622;25.386;2023-12-29T09:30:15;97628.63;;;14.45;45.49
9439;BME280;5176;42.622;25.386;2023-12-29T09:32:42;97626.72;;;14.47;45.19
9439;BME280;5176;42.622;25.386;2023-12-29T09:35:11;97620.69;;;14.58;45.16
9439;BME280;5176;42.622;25.386;2023-12-29T09:37:38;97622.97;;;14.62;44.05
9439;BME280;5176;42.622;25.386;2023-12-29T09:40:07;97615.88;;;14.63;43.97
9439;BME280;5176;42.622;25.386;2023-12-29T09:42:35;97616.06;;;14.84;44.78
9439;BME280;5176;42.622;25.386;2023-12-29T09:45:10;97609.00;;;14.84;43.77
9439;BME280;5176;42.622;25.386;2023-12-29T09:47:39;97618.16;;;15.03;44.63
9439;BME280;5176;42.622;25.386;2023-12-29T09:50:11;97615.31;;;15.06;42.62
9439;BME280;5176;42.622;25.386;2023-12-29T09:52:39;97605.00;;;15.14;42.96
9439;BME280;5176;42.622;25.386;2023-12-29T09:55:09;97603.69;;;15.19;42.67
9439;BME280;5176;42.622;25.386;2023-12-29T09:57:37;97598.66;;;15.27;43.00
9439;BME280;5176;42.622;25.386;2023-12-29T10:00:06;97595.78;;;15.31;41.74
9439;BME280;5176;42.622;25.386;2023-12-29T10:02:37;97584.66;;;15.38;42.61
9439;BME280;5176;42.622;25.386;2023-12-29T10:05:05;97587.25;;;15.49;41.97
9439;BME280;5176;42.622;25.386;2023-12-29T10:07:36;97581.66;;;15.65;41.54
9439;BME280;5176;42.622;25.386;2023-12-29T10:10:05;97568.81;;;15.72;42.20
9439;BME280;5176;42.622;25.386;2023-12-29T10:12:33;97569.25;;;15.77;41.90
9439;BME280;5176;42.622;25.386;2023-12-29T10:15:09;97578.03;;;15.89;42.48
9439;BME280;5176;42.622;25.386;2023-12-29T10:17:44;97569.59;;;15.95;41.40
9439;BME280;5176;42.622;25.386;2023-12-29T10:20:23;97571.41;;;16.05;41.41
9439;BME280;5176;42.622;25.386;2023-12-29T10:23:04;97561.75;;;16.16;41.88
9439;BME280;5176;42.622;25.386;2023-12-29T10:25:34;97563.63;;;16.25;42.24
9439;BME280;5176;42.622;25.386;2023-12-29T10:28:02;97561.13;;;16.23;40.75
9439;BME280;5176;42.622;25.386;2023-12-29T10:30:30;97561.13;;;16.23;41.24
9439;BME280;5176;42.622;25.386;2023-12-29T10:32:58;97553.19;;;16.23;39.96
9439;BME280;5176;42.622;25.386;2023-12-29T10:35:26;97532.91;;;16.13;39.50
9439;BME280;5176;42.622;25.386;2023-12-29T10:38:08;97543.69;;;16.21;40.08
9439;BME280;5176;42.622;25.386;2023-12-29T10:40:35;97544.59;;;16.31;38.98
9439;BME280;5176;42.622;25.386;2023-12-29T10:43:02;97539.78;;;16.36;39.65
9439;BME280;5176;42.622;25.386;2023-12-29T10:45:32;97537.16;;;16.36;38.72
9439;BME280;5176;42.622;25.386;2023-12-29T10:48:00;97533.03;;;16.43;38.90
9439;BME280;5176;42.622;25.386;2023-12-29T10:50:28;97531.44;;;16.52;38.24
9439;BME280;5176;42.622;25.386;2023-12-29T10:53:14;97535.13;;;16.60;38.72
9439;BME280;5176;42.622;25.386;2023-12-29T10:55:42;97525.56;;;16.69;39.41
9439;BME280;5176;42.622;25.386;2023-12-29T10:58:10;97521.28;;;16.57;37.35
9439;BME280;5176;42.622;25.386;2023-12-29T11:00:37;97516.59;;;16.60;38.63
9439;BME280;5176;42.622;25.386;2023-12-29T11:03:04;97517.06;;;16.66;37.54
9439;BME280;5176;42.622;25.386;2023-12-29T11:05:32;97507.41;;;16.65;36.38
9439;BME280;5176;42.622;25.386;2023-12-29T11:08:00;97500.06;;;16.68;36.39
9439;BME280;5176;42.622;25.386;2023-12-29T11:10:30;97502.22;;;16.74;36.71
9439;BME280;5176;42.622;25.386;2023-12-29T11:12:58;97491.81;;;16.82;36.55
9439;BME280;5176;42.622;25.386;2023-12-29T11:15:27;97495.06;;;16.86;36.46
9439;BME280;5176;42.622;25.386;2023-12-29T11:17:56;97488.19;;;16.83;36.66
9439;BME280;5176;42.622;25.386;2023-12-29T11:20:25;97487.50;;;16.81;36.62
9439;BME280;5176;42.622;25.386;2023-12-29T11:22:55;97488.66;;;16.88;36.92
9439;BME280;5176;42.622;25.386;2023-12-29T11:25:22;97481.72;;;16.97;37.02
9439;BME280;5176;42.622;25.386;2023-12-29T11:27:52;97477.72;;;17.03;36.55
9439;BME280;5176;42.622;25.386;2023-12-29T11:30:21;97471.97;;;16.98;36.13
9439;BME280;5176;42.622;25.386;2023-12-29T11:32:53;97483.16;;;17.01;35.57
9439;BME280;5176;42.622;25.386;2023-12-29T11:35:26;97475.38;;;17.09;36.57
9439;BME280;5176;42.622;25.386;2023-12-29T11:38:31;97475.53;;;17.17;35.11
9439;BME280;5176;42.622;25.386;2023-12-29T11:41:05;97467.91;;;17.24;35.01
9439;BME280;5176;42.622;25.386;2023-12-29T11:43:36;97467.34;;;17.21;34.49
9439;BME280;5176;42.622;25.386;2023-12-29T11:46:04;97465.97;;;17.26;34.51
9439;BME280;5176;42.622;25.386;2023-12-29T11:48:53;97464.56;;;17.32;34.52
9439;BME280;5176;42.622;25.386;2023-12-29T11:51:30;97455.25;;;17.28;34.58
9439;BME280;5176;42.622;25.386;2023-12-29T11:53:58;97461.22;;;17.30;34.26
9439;BME280;5176;42.622;25.386;2023-12-29T11:56:31;97460.69;;;17.36;34.62
9439;BME280;5176;42.622;25.386;2023-12-29T11:59:19;97457.84;;;17.18;34.72
9439;BME280;5176;42.622;25.386;2023-12-29T12:01:49;97453.81;;;17.24;34.79
9439;BME280;5176;42.622;25.386;2023-12-29T12:04:37;97447.38;;;17.16;34.67
9439;BME280;5176;42.622;25.386;2023-12-29T12:07:07;97455.31;;;17.07;35.19
9439;BME280;5176;42.622;25.386;2023-12-29T12:09:35;97452.13;;;17.13;35.32
9439;BME280;5176;42.622;25.386;2023-12-29T12:12:03;97452.50;;;17.08;35.30
9439;BME280;5176;42.622;25.386;2023-12-29T12:14:46;97446.91;;;17.02;35.67
9439;BME280;5176;42.622;25.386;2023-12-29T12:17:30;97449.69;;;17.00;35.79
9439;BME280;5176;42.622;25.386;2023-12-29T12:20:00;97448.19;;;17.07;36.02
9439;BME280;5176;42.622;25.386;2023-12-29T12:22:30;97444.41;;;17.00;36.08
9439;BME280;5176;42.622;25.386;2023-12-29T12:24:58;97447.75;;;17.02;36.93
9439;BME280;5176;42.622;25.386;2023-12-29T12:27:27;97442.97;;;16.96;36.54
9439;BME280;5176;42.622;25.386;2023-12-29T12:29:57;97440.28;;;16.86;36.84
9439;BME280;5176;42.622;25.386;2023-12-29T12:32:27;97446.63;;;16.74;37.19
9439;BME280;5176;42.622;25.386;2023-12-29T12:34:56;97449.00;;;16.56;37.81
9439;BME280;5176;42.622;25.386;2023-12-29T12:37:25;97455.78;;;16.49;38.20
9439;BME280;5176;42.622;25.386;2023-12-29T12:39:53;97452.28;;;16.49;38.24
9439;BME280;5176;42.622;25.386;2023-12-29T12:42:21;97457.06;;;16.55;38.44
9439;BME280;5176;42.622;25.386;2023-12-29T12:44:53;97458.88;;;16.54;38.37
9439;BME280;5176;42.622;25.386;2023-12-29T12:47:27;97449.00;;;16.56;38.64
9439;BME280;5176;42.622;25.386;2023-12-29T12:49:59;97455.25;;;16.55;38.30
9439;BME280;5176;42.622;25.386;2023-12-29T12:52:30;97449.78;;;16.47;38.33
9439;BME280;5176;42.622;25.386;2023-12-29T12:54:58;97454.38;;;16.45;38.57
9439;BME280;5176;42.622;25.386;2023-12-29T12:57:26;97453.13;;;16.49;38.96
9439;BME280;5176;42.622;25.386;2023-12-29T12:59:54;97459.13;;;16.51;39.16
9439;BME280;5176;42.622;25.386;2023-12-29T13:02:22;97463.38;;;16.43;39.49
9439;BME280;5176;42.622;25.386;2023-12-29T13:04:52;97454.63;;;16.42;39.76
9439;BME280;5176;42.622;25.386;2023-12-29T13:07:19;97457.22;;;16.32;39.45
9439;BME280;5176;42.622;25.386;2023-12-29T13:09:48;97455.25;;;16.34;39.95
9439;BME280;5176;42.622;25.386;2023-12-29T13:12:17;97462.38;;;16.34;39.83
9439;BME280;5176;42.622;25.386;2023-12-29T13:14:46;97456.56;;;16.40;39.96
9439;BME280;5176;42.622;25.386;2023-12-29T13:17:14;97461.44;;;16.45;39.73
9439;BME280;5176;42.622;25.386;2023-12-29T13:19:43;97462.56;;;16.42;39.35
9439;BME280;5176;42.622;25.386;2023-12-29T13:22:12;97460.50;;;16.46;39.25
9439;BME280;5176;42.622;25.386;2023-12-29T13:24:44;97458.41;;;16.49;39.25